sensor_id;sensor_type;location;lat;lon;timestamp;P1;durP1;ratioP1;P2;durP2;ratioP2
19969;SDS011;10146;47.754;9.566;2023-07-22T00:02:11;4.57;;;4.10;;
19969;SDS011;10146;47.754;9.566;2023-07-22T00:04:37;6.30;;;4.00;;
19969;SDS011;10146;47.754;9.566;2023-07-22T00:07:03;7.68;;;4.00;;
19969;SDS011;10146;47.754;9.566;2023-07-22T00:09:29;6.15;;;3.60;;
19969;SDS011;10146;47.754;9.566;2023-07-22T00:11:54;7.70;;;3.70;;
19969;SDS011;10146;47.754;9.566;2023-07-22T00:14:20;5.10;;;4.07;;
19969;SDS011;10146;47.754;9.566;2023-07-22T00:16:45;8.13;;;4.63;;
19969;SDS011;10146;47.754;9.566;2023-07-22T00:19:11;6.00;;;3.67;;
19969;SDS011;10146;47.754;9.566;2023-07-22T00:21:39;4.13;;;3.53;;
19969;SDS011;10146;47.754;9.566;2023-07-22T00:24:04;8.10;;;3.70;;
19969;SDS011;10146;47.754;9.566;2023-07-22T00:26:30;7.38;;;3.50;;
19969;SDS011;10146;47.754;9.566;2023-07-22T00:28:55;3.80;;;3.40;;
19969;SDS011;10146;47.754;9.566;2023-07-22T00:31:21;5.15;;;3.33;;
19969;SDS011;10146;47.754;9.566;2023-07-22T00:33:46;5.43;;;3.30;;
19969;SDS011;10146;47.754;9.566;2023-07-22T00:36:15;5.97;;;3.70;;
19969;SDS011;10146;47.754;9.566;2023-07-22T00:38:40;5.85;;;3.25;;
19969;SDS011;10146;47.754;9.566;2023-07-22T00:41:06;4.63;;;3.20;;
19969;SDS011;10146;47.754;9.566;2023-07-22T00:43:32;5.68;;;3.85;;
19969;SDS011;10146;47.754;9.566;2023-07-22T00:45:58;5.05;;;3.05;;
19969;SDS011;10146;47.754;9.566;2023-07-22T00:48:23;7.57;;;3.50;;
19969;SDS011;10146;47.754;9.566;2023-07-22T00:50:50;7.18;;;3.47;;
19969;SDS011;10146;47.754;9.566;2023-07-22T00:53:15;6.20;;;3.17;;
19969;SDS011;10146;47.754;9.566;2023-07-22T00:55:41;5.63;;;3.10;;
19969;SDS011;10146;47.754;9.566;2023-07-22T00:58:07;4.15;;;2.97;;
19969;SDS011;10146;47.754;9.566;2023-07-22T01:00:33;3.83;;;3.08;;
19969;SDS011;10146;47.754;9.566;2023-07-22T01:02:58;7.45;;;3.38;;
19969;SDS011;10146;47.754;9.566;2023-07-22T01:05:25;6.63;;;2.83;;
19969;SDS011;10146;47.754;9.566;2023-07-22T01:07:52;6.18;;;3.17;;
19969;SDS011;10146;47.754;9.566;2023-07-22T01:10:18;3.10;;;2.67;;
19969;SDS011;10146;47.754;9.566;2023-07-22T01:12:45;4.53;;;3.10;;
19969;SDS011;10146;47.754;9.566;2023-07-22T01:15:10;4.88;;;2.83;;
19969;SDS011;10146;47.754;9.566;2023-07-22T01:17:37;5.35;;;3.28;;
19969;SDS011;10146;47.754;9.566;2023-07-22T01:20:04;9.52;;;3.20;;
19969;SDS011;10146;47.754;9.566;2023-07-22T01:22:30;4.38;;;3.35;;
19969;SDS011;10146;47.754;9.566;2023-07-22T01:24:57;6.65;;;3.10;;
19969;SDS011;10146;47.754;9.566;2023-07-22T01:27:23;3.92;;;2.92;;
19969;SDS011;10146;47.754;9.566;2023-07-22T01:29:52;5.45;;;2.97;;
19969;SDS011;10146;47.754;9.566;2023-07-22T01:32:18;6.93;;;3.22;;
19969;SDS011;10146;47.754;9.566;2023-07-22T01:34:45;4.68;;;3.50;;
19969;SDS011;10146;47.754;9.566;2023-07-22T01:37:11;4.95;;;3.22;;
19969;SDS011;10146;47.754;9.566;2023-07-22T01:39:36;3.50;;;3.17;;
19969;SDS011;10146;47.754;9.566;2023-07-22T01:42:02;5.05;;;3.30;;
19969;SDS011;10146;47.754;9.566;2023-07-22T01:44:28;5.93;;;3.40;;
19969;SDS011;10146;47.754;9.566;2023-07-22T01:46:54;5.30;;;3.30;;
19969;SDS011;10146;47.754;9.566;2023-07-22T01:49:20;4.40;;;2.92;;
19969;SDS011;10146;47.754;9.566;2023-07-22T01:51:46;4.13;;;3.08;;
19969;SDS011;10146;47.754;9.566;2023-07-22T01:54:11;3.45;;;3.15;;
19969;SDS011;10146;47.754;9.566;2023-07-22T01:56:37;7.13;;;3.10;;
19969;SDS011;10146;47.754;9.566;2023-07-22T01:59:03;6.55;;;3.67;;
19969;SDS011;10146;47.754;9.566;2023-07-22T02:01:30;6.90;;;3.92;;
19969;SDS011;10146;47.754;9.566;2023-07-22T02:03:55;5.30;;;3.35;;
19969;SDS011;10146;47.754;9.566;2023-07-22T02:06:21;5.28;;;3.38;;
19969;SDS011;10146;47.754;9.566;2023-07-22T02:08:47;4.82;;;3.40;;
19969;SDS011;10146;47.754;9.566;2023-07-22T02:11:13;3.78;;;2.80;;
19969;SDS011;10146;47.754;9.566;2023-07-22T02:13:39;4.85;;;3.15;;
19969;SDS011;10146;47.754;9.566;2023-07-22T02:16:04;6.15;;;3.33;;
19969;SDS011;10146;47.754;9.566;2023-07-22T02:18:30;4.50;;;2.88;;
19969;SDS011;10146;47.754;9.566;2023-07-22T02:20:56;6.18;;;3.22;;
19969;SDS011;10146;47.754;9.566;2023-07-22T02:23:22;8.02;;;3.30;;
19969;SDS011;10146;47.754;9.566;2023-07-22T02:25:52;4.97;;;3.10;;
19969;SDS011;10146;47.754;9.566;2023-07-22T02:28:18;5.13;;;3.20;;
19969;SDS011;10146;47.754;9.566;2023-07-22T02:30:55;5.78;;;3.60;;
19969;SDS011;10146;47.754;9.566;2023-07-22T02:33:27;7.47;;;3.67;;
19969;SDS011;10146;47.754;9.566;2023-07-22T02:35:52;5.80;;;3.70;;
19969;SDS011;10146;47.754;9.566;2023-07-22T02:38:18;4.93;;;3.53;;
19969;SDS011;10146;47.754;9.566;2023-07-22T02:40:44;5.97;;;4.18;;
19969;SDS011;10146;47.754;9.566;2023-07-22T02:43:09;3.70;;;3.40;;
19969;SDS011;10146;47.754;9.566;2023-07-22T02:45:36;5.28;;;3.55;;
19969;SDS011;10146;47.754;9.566;2023-07-22T02:48:01;5.22;;;3.63;;
19969;SDS011;10146;47.754;9.566;2023-07-22T02:50:27;4.60;;;3.60;;
19969;SDS011;10146;47.754;9.566;2023-07-22T02:52:53;5.57;;;3.65;;
19969;SDS011;10146;47.754;9.566;2023-07-22T02:55:18;5.28;;;3.35;;
19969;SDS011;10146;47.754;9.566;2023-07-22T02:57:45;4.53;;;3.17;;
19969;SDS011;10146;47.754;9.566;2023-07-22T03:00:11;5.07;;;3.15;;
19969;SDS011;10146;47.754;9.566;2023-07-22T03:02:41;5.10;;;3.55;;
19969;SDS011;10146;47.754;9.566;2023-07-22T03:05:13;5.70;;;3.50;;
19969;SDS011;10146;47.754;9.566;2023-07-22T03:07:38;4.57;;;3.55;;
19969;SDS011;10146;47.754;9.566;2023-07-22T03:10:05;7.13;;;4.00;;
19969;SDS011;10146;47.754;9.566;2023-07-22T03:12:31;4.60;;;3.42;;
19969;SDS011;10146;47.754;9.566;2023-07-22T03:14:57;7.80;;;3.92;;
19969;SDS011;10146;47.754;9.566;2023-07-22T03:17:22;6.60;;;3.85;;
19969;SDS011;10146;47.754;9.566;2023-07-22T03:19:48;3.92;;;3.53;;
19969;SDS011;10146;47.754;9.566;2023-07-22T03:22:14;7.63;;;3.38;;
19969;SDS011;10146;47.754;9.566;2023-07-22T03:24:44;4.28;;;3.88;;
19969;SDS011;10146;47.754;9.566;2023-07-22T03:27:10;5.90;;;3.95;;
19969;SDS011;10146;47.754;9.566;2023-07-22T03:29:36;4.95;;;3.85;;
19969;SDS011;10146;47.754;9.566;2023-07-22T03:32:02;5.03;;;3.92;;
19969;SDS011;10146;47.754;9.566;2023-07-22T03:34:29;8.25;;;3.55;;
19969;SDS011;10146;47.754;9.566;2023-07-22T03:36:55;4.55;;;3.40;;
19969;SDS011;10146;47.754;9.566;2023-07-22T03:39:21;5.50;;;3.28;;
19969;SDS011;10146;47.754;9.566;2023-07-22T03:41:46;4.25;;;3.30;;
19969;SDS011;10146;47.754;9.566;2023-07-22T03:44:12;6.07;;;3.88;;
19969;SDS011;10146;47.754;9.566;2023-07-22T03:46:38;5.22;;;4.03;;
19969;SDS011;10146;47.754;9.566;2023-07-22T03:49:04;4.72;;;4.03;;
19969;SDS011;10146;47.754;9.566;2023-07-22T03:51:32;4.85;;;3.80;;
19969;SDS011;10146;47.754;9.566;2023-07-22T03:53:58;5.72;;;4.00;;
19969;SDS011;10146;47.754;9.566;2023-07-22T03:56:24;5.40;;;3.60;;
19969;SDS011;10146;47.754;9.566;2023-07-22T03:58:50;5.28;;;3.63;;
19969;SDS011;10146;47.754;9.566;2023-07-22T04:01:16;8.07;;;4.03;;
19969;SDS011;10146;47.754;9.566;2023-07-22T04:03:42;6.85;;;4.72;;
19969;SDS011;10146;47.754;9.566;2023-07-22T04:06:07;6.45;;;4.57;;
19969;SDS011;10146;47.754;9.566;2023-07-22T04:08:33;5.10;;;4.32;;
19969;SDS011;10146;47.754;9.566;2023-07-22T04:10:58;5.07;;;4.28;;
19969;SDS011;10146;47.754;9.566;2023-07-22T04:13:24;4.75;;;4.03;;
19969;SDS011;10146;47.754;9.566;2023-07-22T04:15:51;6.05;;;3.95;;
19969;SDS011;10146;47.754;9.566;2023-07-22T04:18:17;5.55;;;4.32;;
19969;SDS011;10146;47.754;9.566;2023-07-22T04:20:44;8.77;;;4.32;;
19969;SDS011;10146;47.754;9.566;2023-07-22T04:23:10;5.05;;;4.55;;
19969;SDS011;10146;47.754;9.566;2023-07-22T04:25:43;6.53;;;4.25;;
19969;SDS011;10146;47.754;9.566;2023-07-22T04:28:10;4.57;;;4.10;;
19969;SDS011;10146;47.754;9.566;2023-07-22T04:30:36;7.07;;;4.00;;
19969;SDS011;10146;47.754;9.566;2023-07-22T04:33:03;5.35;;;4.38;;
19969;SDS011;10146;47.754;9.566;2023-07-22T04:35:33;4.82;;;4.32;;
19969;SDS011;10146;47.754;9.566;2023-07-22T04:38:01;7.20;;;4.72;;
19969;SDS011;10146;47.754;9.566;2023-07-22T04:40:28;5.63;;;4.90;;
19969;SDS011;10146;47.754;9.566;2023-07-22T04:42:55;8.80;;;4.30;;
19969;SDS011;10146;47.754;9.566;2023-07-22T04:45:22;5.72;;;4.55;;
19969;SDS011;10146;47.754;9.566;2023-07-22T04:47:51;7.82;;;4.80;;
19969;SDS011;10146;47.754;9.566;2023-07-22T04:50:17;6.18;;;4.45;;
19969;SDS011;10146;47.754;9.566;2023-07-22T04:52:44;6.05;;;5.05;;
19969;SDS011;10146;47.754;9.566;2023-07-22T04:55:13;7.95;;;5.05;;
19969;SDS011;10146;47.754;9.566;2023-07-22T04:57:39;5.95;;;5.03;;
19969;SDS011;10146;47.754;9.566;2023-07-22T05:00:07;4.30;;;3.55;;
19969;SDS011;10146;47.754;9.566;2023-07-22T05:02:39;5.65;;;4.13;;
19969;SDS011;10146;47.754;9.566;2023-07-22T05:05:04;5.75;;;4.38;;
19969;SDS011;10146;47.754;9.566;2023-07-22T05:07:30;4.70;;;4.25;;
19969;SDS011;10146;47.754;9.566;2023-07-22T05:09:56;7.65;;;4.93;;
19969;SDS011;10146;47.754;9.566;2023-07-22T05:12:21;8.65;;;5.07;;
19969;SDS011;10146;47.754;9.566;2023-07-22T05:14:47;6.63;;;4.47;;
19969;SDS011;10146;47.754;9.566;2023-07-22T05:17:14;6.05;;;4.80;;
19969;SDS011;10146;47.754;9.566;2023-07-22T05:19:39;5.13;;;4.63;;
19969;SDS011;10146;47.754;9.566;2023-07-22T05:22:05;5.03;;;4.50;;
19969;SDS011;10146;47.754;9.566;2023-07-22T05:24:32;5.35;;;4.85;;
19969;SDS011;10146;47.754;9.566;2023-07-22T05:26:57;5.65;;;4.63;;
19969;SDS011;10146;47.754;9.566;2023-07-22T05:29:23;6.18;;;4.97;;
19969;SDS011;10146;47.754;9.566;2023-07-22T05:31:48;5.28;;;4.78;;
19969;SDS011;10146;47.754;9.566;2023-07-22T05:34:14;6.53;;;5.55;;
19969;SDS011;10146;47.754;9.566;2023-07-22T05:36:40;6.57;;;5.10;;
19969;SDS011;10146;47.754;9.566;2023-07-22T05:39:05;6.60;;;4.88;;
19969;SDS011;10146;47.754;9.566;2023-07-22T05:41:34;6.43;;;4.55;;
19969;SDS011;10146;47.754;9.566;2023-07-22T05:44:00;5.80;;;5.20;;
19969;SDS011;10146;47.754;9.566;2023-07-22T05:46:25;7.53;;;5.45;;
19969;SDS011;10146;47.754;9.566;2023-07-22T05:48:51;6.93;;;5.57;;
19969;SDS011;10146;47.754;9.566;2023-07-22T05:51:17;6.35;;;5.53;;
19969;SDS011;10146;47.754;9.566;2023-07-22T05:53:43;8.85;;;5.72;;
19969;SDS011;10146;47.754;9.566;2023-07-22T05:56:08;7.03;;;5.80;;
19969;SDS011;10146;47.754;9.566;2023-07-22T05:58:34;7.22;;;6.53;;
19969;SDS011;10146;47.754;9.566;2023-07-22T06:01:00;6.95;;;5.85;;
19969;SDS011;10146;47.754;9.566;2023-07-22T06:03:26;7.13;;;5.80;;
19969;SDS011;10146;47.754;9.566;2023-07-22T06:05:51;7.78;;;5.55;;
19969;SDS011;10146;47.754;9.566;2023-07-22T06:08:17;7.05;;;6.32;;
19969;SDS011;10146;47.754;9.566;2023-07-22T06:10:42;8.90;;;5.97;;
19969;SDS011;10146;47.754;9.566;2023-07-22T06:13:08;6.43;;;5.88;;
19969;SDS011;10146;47.754;9.566;2023-07-22T06:15:34;8.02;;;5.78;;
19969;SDS011;10146;47.754;9.566;2023-07-22T06:18:00;9.07;;;6.40;;
19969;SDS011;10146;47.754;9.566;2023-07-22T06:20:26;7.95;;;5.50;;
19969;SDS011;10146;47.754;9.566;2023-07-22T06:22:52;6.72;;;6.03;;
19969;SDS011;10146;47.754;9.566;2023-07-22T06:25:18;5.55;;;5.05;;
19969;SDS011;10146;47.754;9.566;2023-07-22T06:27:43;5.72;;;5.18;;
19969;SDS011;10146;47.754;9.566;2023-07-22T06:30:09;5.65;;;5.15;;
19969;SDS011;10146;47.754;9.566;2023-07-22T06:32:36;7.18;;;6.18;;
19969;SDS011;10146;47.754;9.566;2023-07-22T06:35:02;7.85;;;6.18;;
19969;SDS011;10146;47.754;9.566;2023-07-22T06:37:29;7.00;;;6.30;;
19969;SDS011;10146;47.754;9.566;2023-07-22T06:39:54;7.63;;;5.70;;
19969;SDS011;10146;47.754;9.566;2023-07-22T06:42:20;7.10;;;5.45;;
19969;SDS011;10146;47.754;9.566;2023-07-22T06:44:46;7.40;;;6.32;;
19969;SDS011;10146;47.754;9.566;2023-07-22T06:47:11;6.65;;;6.05;;
19969;SDS011;10146;47.754;9.566;2023-07-22T06:49:37;9.30;;;6.60;;
19969;SDS011;10146;47.754;9.566;2023-07-22T06:52:03;6.47;;;5.85;;
19969;SDS011;10146;47.754;9.566;2023-07-22T06:54:29;6.28;;;5.50;;
19969;SDS011;10146;47.754;9.566;2023-07-22T06:56:54;6.35;;;5.75;;
19969;SDS011;10146;47.754;9.566;2023-07-22T06:59:20;9.20;;;5.70;;
19969;SDS011;10146;47.754;9.566;2023-07-22T07:01:46;7.75;;;6.18;;
19969;SDS011;10146;47.754;9.566;2023-07-22T07:04:11;7.45;;;6.40;;
19969;SDS011;10146;47.754;9.566;2023-07-22T07:06:37;6.53;;;5.80;;
19969;SDS011;10146;47.754;9.566;2023-07-22T07:09:03;6.18;;;5.57;;
19969;SDS011;10146;47.754;9.566;2023-07-22T07:11:30;7.18;;;5.68;;
19969;SDS011;10146;47.754;9.566;2023-07-22T07:13:56;7.72;;;5.93;;
19969;SDS011;10146;47.754;9.566;2023-07-22T07:18:50;6.07;;;5.47;;
19969;SDS011;10146;47.754;9.566;2023-07-22T07:21:16;8.00;;;5.57;;
19969;SDS011;10146;47.754;9.566;2023-07-22T07:23:42;5.68;;;4.97;;
19969;SDS011;10146;47.754;9.566;2023-07-22T07:26:08;5.07;;;4.47;;
19969;SDS011;10146;47.754;9.566;2023-07-22T07:28:34;4.90;;;4.43;;
19969;SDS011;10146;47.754;9.566;2023-07-22T07:30:59;5.20;;;4.57;;
19969;SDS011;10146;47.754;9.566;2023-07-22T07:33:25;4.53;;;4.13;;
19969;SDS011;10146;47.754;9.566;2023-07-22T07:35:50;4.30;;;3.83;;
19969;SDS011;10146;47.754;9.566;2023-07-22T07:38:16;4.40;;;4.00;;
19969;SDS011;10146;47.754;9.566;2023-07-22T07:40:42;6.45;;;4.68;;
19969;SDS011;10146;47.754;9.566;2023-07-22T07:43:08;4.82;;;3.75;;
19969;SDS011;10146;47.754;9.566;2023-07-22T07:45:34;5.13;;;4.30;;
19969;SDS011;10146;47.754;9.566;2023-07-22T07:48:03;8.80;;;3.40;;
19969;SDS011;10146;47.754;9.566;2023-07-22T07:50:29;4.65;;;3.90;;
19969;SDS011;10146;47.754;9.566;2023-07-22T07:52:54;3.95;;;3.38;;
19969;SDS011;10146;47.754;9.566;2023-07-22T07:55:20;5.68;;;4.50;;
19969;SDS011;10146;47.754;9.566;2023-07-22T07:57:45;3.83;;;3.50;;
19969;SDS011;10146;47.754;9.566;2023-07-22T08:00:11;4.03;;;3.47;;
19969;SDS011;10146;47.754;9.566;2023-07-22T08:02:37;4.53;;;2.75;;
19969;SDS011;10146;47.754;9.566;2023-07-22T08:05:03;4.88;;;2.90;;
19969;SDS011;10146;47.754;9.566;2023-07-22T08:07:29;3.92;;;2.60;;
19969;SDS011;10146;47.754;9.566;2023-07-22T08:09:55;3.42;;;2.42;;
19969;SDS011;10146;47.754;9.566;2023-07-22T08:12:22;4.13;;;2.50;;
19969;SDS011;10146;47.754;9.566;2023-07-22T08:14:48;4.68;;;2.42;;
19969;SDS011;10146;47.754;9.566;2023-07-22T08:17:13;3.70;;;2.50;;
19969;SDS011;10146;47.754;9.566;2023-07-22T08:19:39;5.68;;;3.10;;
19969;SDS011;10146;47.754;9.566;2023-07-22T08:22:05;3.28;;;2.65;;
19969;SDS011;10146;47.754;9.566;2023-07-22T08:24:31;2.70;;;2.30;;
19969;SDS011;10146;47.754;9.566;2023-07-22T08:26:57;4.00;;;2.70;;
19969;SDS011;10146;47.754;9.566;2023-07-22T08:29:23;3.88;;;2.60;;
19969;SDS011;10146;47.754;9.566;2023-07-22T08:31:49;3.55;;;2.35;;
19969;SDS011;10146;47.754;9.566;2023-07-22T08:34:15;3.78;;;2.40;;
19969;SDS011;10146;47.754;9.566;2023-07-22T08:36:41;2.45;;;2.25;;
19969;SDS011;10146;47.754;9.566;2023-07-22T08:39:07;4.40;;;2.40;;
19969;SDS011;10146;47.754;9.566;2023-07-22T08:41:32;3.60;;;2.50;;
19969;SDS011;10146;47.754;9.566;2023-07-22T08:43:59;3.38;;;2.50;;
19969;SDS011;10146;47.754;9.566;2023-07-22T08:46:27;3.92;;;2.45;;
19969;SDS011;10146;47.754;9.566;2023-07-22T08:48:57;2.47;;;2.05;;
19969;SDS011;10146;47.754;9.566;2023-07-22T08:51:25;3.92;;;2.72;;
19969;SDS011;10146;47.754;9.566;2023-07-22T08:53:55;2.95;;;2.42;;
19969;SDS011;10146;47.754;9.566;2023-07-22T08:56:24;3.67;;;2.13;;
19969;SDS011;10146;47.754;9.566;2023-07-22T08:58:53;2.28;;;2.08;;
19969;SDS011;10146;47.754;9.566;2023-07-22T09:01:22;3.25;;;1.95;;
19969;SDS011;10146;47.754;9.566;2023-07-22T09:03:49;2.22;;;2.00;;
19969;SDS011;10146;47.754;9.566;2023-07-22T09:06:18;3.05;;;2.08;;
19969;SDS011;10146;47.754;9.566;2023-07-22T09:08:45;3.53;;;2.00;;
19969;SDS011;10146;47.754;9.566;2023-07-22T09:11:11;2.33;;;1.80;;
19969;SDS011;10146;47.754;9.566;2023-07-22T09:13:36;2.88;;;1.90;;
19969;SDS011;10146;47.754;9.566;2023-07-22T09:16:04;2.85;;;2.03;;
19969;SDS011;10146;47.754;9.566;2023-07-22T09:18:32;2.22;;;1.60;;
19969;SDS011;10146;47.754;9.566;2023-07-22T09:20:59;2.03;;;1.83;;
19969;SDS011;10146;47.754;9.566;2023-07-22T09:23:37;2.22;;;2.00;;
19969;SDS011;10146;47.754;9.566;2023-07-22T09:26:13;2.80;;;1.83;;
19969;SDS011;10146;47.754;9.566;2023-07-22T09:28:47;2.60;;;1.88;;
19969;SDS011;10146;47.754;9.566;2023-07-22T09:31:17;3.08;;;2.00;;
19969;SDS011;10146;47.754;9.566;2023-07-22T09:33:43;3.42;;;1.67;;
19969;SDS011;10146;47.754;9.566;2023-07-22T09:36:10;2.15;;;1.70;;
19969;SDS011;10146;47.754;9.566;2023-07-22T09:38:36;2.45;;;1.88;;
19969;SDS011;10146;47.754;9.566;2023-07-22T09:41:02;1.83;;;1.58;;
19969;SDS011;10146;47.754;9.566;2023-07-22T09:43:29;2.75;;;1.80;;
19969;SDS011;10146;47.754;9.566;2023-07-22T09:45:55;1.85;;;1.67;;
19969;SDS011;10146;47.754;9.566;2023-07-22T09:48:21;4.47;;;2.70;;
19969;SDS011;10146;47.754;9.566;2023-07-22T09:50:55;1.67;;;1.58;;
19969;SDS011;10146;47.754;9.566;2023-07-22T09:53:22;3.03;;;1.60;;
19969;SDS011;10146;47.754;9.566;2023-07-22T09:55:47;3.75;;;1.98;;
19969;SDS011;10146;47.754;9.566;2023-07-22T09:58:17;2.15;;;1.35;;
19969;SDS011;10146;47.754;9.566;2023-07-22T10:00:46;2.72;;;1.70;;
19969;SDS011;10146;47.754;9.566;2023-07-22T10:03:16;2.00;;;1.80;;
19969;SDS011;10146;47.754;9.566;2023-07-22T10:05:44;1.70;;;1.60;;
19969;SDS011;10146;47.754;9.566;2023-07-22T10:08:13;2.75;;;1.63;;
19969;SDS011;10146;47.754;9.566;2023-07-22T10:10:44;2.45;;;1.50;;
19969;SDS011;10146;47.754;9.566;2023-07-22T10:13:10;2.47;;;1.60;;
19969;SDS011;10146;47.754;9.566;2023-07-22T10:15:36;1.90;;;1.70;;
19969;SDS011;10146;47.754;9.566;2023-07-22T10:18:02;2.40;;;2.20;;
19969;SDS011;10146;47.754;9.566;2023-07-22T10:20:30;3.58;;;2.40;;
19969;SDS011;10146;47.754;9.566;2023-07-22T10:22:59;3.90;;;2.92;;
19969;SDS011;10146;47.754;9.566;2023-07-22T10:25:26;2.35;;;2.15;;
19969;SDS011;10146;47.754;9.566;2023-07-22T10:27:52;2.40;;;1.98;;
19969;SDS011;10146;47.754;9.566;2023-07-22T10:30:18;2.15;;;1.95;;
19969;SDS011;10146;47.754;9.566;2023-07-22T10:35:21;1.98;;;1.70;;
19969;SDS011;10146;47.754;9.566;2023-07-22T10:38:08;3.38;;;1.92;;
19969;SDS011;10146;47.754;9.566;2023-07-22T10:43:15;3.58;;;3.10;;
19969;SDS011;10146;47.754;9.566;2023-07-22T10:45:43;1.92;;;1.48;;
19969;SDS011;10146;47.754;9.566;2023-07-22T10:48:15;2.28;;;1.80;;
19969;SDS011;10146;47.754;9.566;2023-07-22T10:50:41;3.92;;;1.67;;
19969;SDS011;10146;47.754;9.566;2023-07-22T10:53:21;2.53;;;1.50;;
19969;SDS011;10146;47.754;9.566;2023-07-22T11:06:32;2.35;;;1.55;;
19969;SDS011;10146;47.754;9.566;2023-07-22T11:08:58;2.13;;;1.75;;
19969;SDS011;10146;47.754;9.566;2023-07-22T11:11:40;3.00;;;1.70;;
19969;SDS011;10146;47.754;9.566;2023-07-22T11:14:16;2.28;;;1.65;;
19969;SDS011;10146;47.754;9.566;2023-07-22T11:16:46;3.03;;;1.80;;
19969;SDS011;10146;47.754;9.566;2023-07-22T11:19:13;4.03;;;1.90;;
19969;SDS011;10146;47.754;9.566;2023-07-22T11:21:40;4.20;;;1.83;;
19969;SDS011;10146;47.754;9.566;2023-07-22T11:24:06;1.98;;;1.70;;
19969;SDS011;10146;47.754;9.566;2023-07-22T11:26:32;1.83;;;1.60;;
19969;SDS011;10146;47.754;9.566;2023-07-22T11:29:02;2.42;;;2.00;;
19969;SDS011;10146;47.754;9.566;2023-07-22T11:31:35;2.40;;;1.80;;
19969;SDS011;10146;47.754;9.566;2023-07-22T11:34:05;2.60;;;1.63;;
19969;SDS011;10146;47.754;9.566;2023-07-22T11:36:31;2.72;;;1.70;;
19969;SDS011;10146;47.754;9.566;2023-07-22T11:39:07;2.28;;;2.08;;
19969;SDS011;10146;47.754;9.566;2023-07-22T11:41:34;2.17;;;1.90;;
19969;SDS011;10146;47.754;9.566;2023-07-22T11:44:01;2.08;;;1.88;;
19969;SDS011;10146;47.754;9.566;2023-07-22T11:46:33;2.03;;;1.92;;
19969;SDS011;10146;47.754;9.566;2023-07-22T11:49:11;2.65;;;1.88;;
19969;SDS011;10146;47.754;9.566;2023-07-22T11:51:37;1.98;;;1.73;;
19969;SDS011;10146;47.754;9.566;2023-07-22T11:54:08;3.47;;;1.77;;
19969;SDS011;10146;47.754;9.566;2023-07-22T11:56:33;3.63;;;1.90;;
19969;SDS011;10146;47.754;9.566;2023-07-22T11:58:59;2.40;;;1.92;;
19969;SDS011;10146;47.754;9.566;2023-07-22T12:01:28;2.17;;;1.95;;
19969;SDS011;10146;47.754;9.566;2023-07-22T12:03:57;2.17;;;1.83;;
19969;SDS011;10146;47.754;9.566;2023-07-22T12:06:24;1.95;;;1.80;;
19969;SDS011;10146;47.754;9.566;2023-07-22T12:08:51;3.88;;;2.00;;
19969;SDS011;10146;47.754;9.566;2023-07-22T12:13:43;2.30;;;2.10;;
19969;SDS011;10146;47.754;9.566;2023-07-22T12:16:11;2.95;;;2.00;;
19969;SDS011;10146;47.754;9.566;2023-07-22T12:18:41;2.45;;;2.25;;
19969;SDS011;10146;47.754;9.566;2023-07-22T12:21:10;3.45;;;1.92;;
19969;SDS011;10146;47.754;9.566;2023-07-22T12:23:37;2.80;;;2.13;;
19969;SDS011;10146;47.754;9.566;2023-07-22T12:26:03;3.83;;;2.00;;
19969;SDS011;10146;47.754;9.566;2023-07-22T12:28:29;2.17;;;1.85;;
19969;SDS011;10146;47.754;9.566;2023-07-22T12:30:55;2.85;;;2.28;;
19969;SDS011;10146;47.754;9.566;2023-07-22T12:33:22;3.03;;;1.90;;
19969;SDS011;10146;47.754;9.566;2023-07-22T12:35:49;2.20;;;2.00;;
19969;SDS011;10146;47.754;9.566;2023-07-22T12:38:15;2.70;;;2.10;;
19969;SDS011;10146;47.754;9.566;2023-07-22T12:40:40;2.83;;;2.25;;
19969;SDS011;10146;47.754;9.566;2023-07-22T12:43:06;2.58;;;2.10;;
19969;SDS011;10146;47.754;9.566;2023-07-22T12:45:33;2.47;;;2.08;;
19969;SDS011;10146;47.754;9.566;2023-07-22T12:47:58;2.30;;;2.10;;
19969;SDS011;10146;47.754;9.566;2023-07-22T12:50:24;2.35;;;2.00;;
19969;SDS011;10146;47.754;9.566;2023-07-22T12:52:49;4.22;;;2.28;;
19969;SDS011;10146;47.754;9.566;2023-07-22T12:55:15;2.47;;;2.22;;
19969;SDS011;10146;47.754;9.566;2023-07-22T12:57:41;4.60;;;2.10;;
19969;SDS011;10146;47.754;9.566;2023-07-22T13:00:06;3.95;;;2.17;;
19969;SDS011;10146;47.754;9.566;2023-07-22T13:02:35;3.88;;;2.30;;
19969;SDS011;10146;47.754;9.566;2023-07-22T13:05:01;2.80;;;2.20;;
19969;SDS011;10146;47.754;9.566;2023-07-22T13:07:27;4.57;;;2.30;;
19969;SDS011;10146;47.754;9.566;2023-07-22T13:09:52;2.83;;;2.17;;
19969;SDS011;10146;47.754;9.566;2023-07-22T13:12:21;3.38;;;2.13;;
19969;SDS011;10146;47.754;9.566;2023-07-22T13:14:47;4.15;;;2.80;;
19969;SDS011;10146;47.754;9.566;2023-07-22T13:17:13;2.95;;;2.13;;
19969;SDS011;10146;47.754;9.566;2023-07-22T13:19:38;2.35;;;1.90;;
19969;SDS011;10146;47.754;9.566;2023-07-22T13:22:04;2.08;;;1.88;;
19969;SDS011;10146;47.754;9.566;2023-07-22T13:24:29;4.15;;;2.33;;
19969;SDS011;10146;47.754;9.566;2023-07-22T13:26:55;3.15;;;2.10;;
19969;SDS011;10146;47.754;9.566;2023-07-22T13:29:21;3.63;;;2.22;;
19969;SDS011;10146;47.754;9.566;2023-07-22T13:31:46;2.53;;;2.20;;
19969;SDS011;10146;47.754;9.566;2023-07-22T13:34:12;3.90;;;2.03;;
19969;SDS011;10146;47.754;9.566;2023-07-22T13:36:37;3.58;;;2.25;;
19969;SDS011;10146;47.754;9.566;2023-07-22T13:39:03;2.88;;;2.38;;
19969;SDS011;10146;47.754;9.566;2023-07-22T13:41:29;2.92;;;2.15;;
19969;SDS011;10146;47.754;9.566;2023-07-22T13:43:54;2.20;;;2.00;;
19969;SDS011;10146;47.754;9.566;2023-07-22T13:46:20;2.25;;;2.00;;
19969;SDS011;10146;47.754;9.566;2023-07-22T13:48:45;3.10;;;2.33;;
19969;SDS011;10146;47.754;9.566;2023-07-22T13:51:11;4.50;;;2.17;;
19969;SDS011;10146;47.754;9.566;2023-07-22T13:53:36;2.97;;;2.65;;
19969;SDS011;10146;47.754;9.566;2023-07-22T13:56:02;4.13;;;2.28;;
19969;SDS011;10146;47.754;9.566;2023-07-22T13:58:28;3.78;;;2.45;;
19969;SDS011;10146;47.754;9.566;2023-07-22T14:00:54;2.40;;;2.20;;
19969;SDS011;10146;47.754;9.566;2023-07-22T14:03:19;3.85;;;2.45;;
19969;SDS011;10146;47.754;9.566;2023-07-22T14:05:45;3.05;;;2.47;;
19969;SDS011;10146;47.754;9.566;2023-07-22T14:08:11;3.10;;;2.50;;
19969;SDS011;10146;47.754;9.566;2023-07-22T14:10:37;4.43;;;3.47;;
19969;SDS011;10146;47.754;9.566;2023-07-22T14:13:02;4.32;;;3.10;;
19969;SDS011;10146;47.754;9.566;2023-07-22T14:15:28;3.33;;;2.65;;
19969;SDS011;10146;47.754;9.566;2023-07-22T14:17:54;4.78;;;2.70;;
19969;SDS011;10146;47.754;9.566;2023-07-22T14:20:19;2.30;;;2.10;;
19969;SDS011;10146;47.754;9.566;2023-07-22T14:22:45;4.60;;;2.50;;
19969;SDS011;10146;47.754;9.566;2023-07-22T14:25:11;2.63;;;2.42;;
19969;SDS011;10146;47.754;9.566;2023-07-22T14:27:39;2.90;;;2.60;;
19969;SDS011;10146;47.754;9.566;2023-07-22T14:30:05;2.60;;;2.40;;
19969;SDS011;10146;47.754;9.566;2023-07-22T14:32:31;2.38;;;2.17;;
19969;SDS011;10146;47.754;9.566;2023-07-22T14:34:57;6.13;;;2.25;;
19969;SDS011;10146;47.754;9.566;2023-07-22T14:37:23;2.92;;;2.20;;
19969;SDS011;10146;47.754;9.566;2023-07-22T14:39:49;2.50;;;2.30;;
19969;SDS011;10146;47.754;9.566;2023-07-22T14:42:14;2.67;;;1.90;;
19969;SDS011;10146;47.754;9.566;2023-07-22T14:44:40;3.03;;;2.38;;
19969;SDS011;10146;47.754;9.566;2023-07-22T14:47:06;2.65;;;2.35;;
19969;SDS011;10146;47.754;9.566;2023-07-22T14:49:31;2.92;;;2.38;;
19969;SDS011;10146;47.754;9.566;2023-07-22T14:51:57;2.38;;;2.17;;
19969;SDS011;10146;47.754;9.566;2023-07-22T14:54:23;2.50;;;2.15;;
19969;SDS011;10146;47.754;9.566;2023-07-22T14:56:48;2.78;;;2.42;;
19969;SDS011;10146;47.754;9.566;2023-07-22T14:59:14;3.10;;;2.30;;
19969;SDS011;10146;47.754;9.566;2023-07-22T15:01:41;4.25;;;2.88;;
19969;SDS011;10146;47.754;9.566;2023-07-22T15:04:07;2.65;;;2.28;;
19969;SDS011;10146;47.754;9.566;2023-07-22T15:06:33;2.85;;;2.65;;